sensor_id;sensor_type;location;lat;lon;timestamp;pressure;altitude;pressure_sealevel;temperature;humidity
24666;BME280;29726;53.532;-1.478;2024-01-30T00:00:40;100558.91;;;11.38;100.00
24666;BME280;29726;53.532;-1.478;2024-01-30T00:03:24;100549.28;;;11.39;100.00
24666;BME280;29726;53.532;-1.478;2024-01-30T00:06:08;100540.13;;;11.39;100.00
24666;BME280;29726;53.532;-1.478;2024-01-30T00:08:52;100533.16;;;11.34;100.00
24666;BME280;29726;53.532;-1.478;2024-01-30T00:11:37;100540.88;;;11.39;100.00
24666;BME280;29726;53.532;-1.478;2024-01-30T00:14:22;100534.22;;;11.37;100.00
24666;BME280;29726;53.532;-1.478;2024-01-30T00:17:06;100529.25;;;11.41;100.00
24666;BME280;29726;53.532;-1.478;2024-01-30T00:19:50;100522.13;;;11.40;100.00
24666;BME280;29726;53.532;-1.478;2024-01-30T00:22:34;100529.88;;;11.36;100.00
24666;BME280;29726;53.532;-1.478;2024-01-30T00:25:18;100520.88;;;11.41;100.00
24666;BME280;29726;53.532;-1.478;2024-01-30T00:28:02;100525.22;;;11.42;100.00
24666;BME280;29726;53.532;-1.478;2024-01-30T00:30:46;100523.66;;;11.41;100.00
24666;BME280;29726;53.532;-1.478;2024-01-30T00:33:30;100518.53;;;11.39;100.00
24666;BME280;29726;53.532;-1.478;2024-01-30T00:36:14;100514.97;;;11.39;100.00
24666;BME280;29726;53.532;-1.478;2024-01-30T00:38:58;100511.22;;;11.42;100.00
24666;BME280;29726;53.532;-1.478;2024-01-30T00:41:42;100506.59;;;11.39;100.00
24666;BME280;29726;53.532;-1.478;2024-01-30T00:44:27;100512.00;;;11.42;100.00
24666;BME280;29726;53.532;-1.478;2024-01-30T00:47:11;100512.78;;;11.43;100.00
24666;BME280;29726;53.532;-1.478;2024-01-30T00:49:55;100496.78;;;11.43;100.00
24666;BME280;29726;53.532;-1.478;2024-01-30T00:52:39;100506.41;;;11.42;100.00
24666;BME280;29726;53.532;-1.478;2024-01-30T00:55:25;100501.75;;;11.39;100.00
24666;BME280;29726;53.532;-1.478;2024-01-30T00:58:09;100507.94;;;11.43;100.00
24666;BME280;29726;53.532;-1.478;2024-01-30T01:00:53;100489.03;;;11.38;100.00
24666;BME280;29726;53.532;-1.478;2024-01-30T01:03:37;100512.78;;;11.43;100.00
24666;BME280;29726;53.532;-1.478;2024-01-30T01:06:21;100504.41;;;11.43;100.00
24666;BME280;29726;53.532;-1.478;2024-01-30T01:09:05;100491.38;;;11.40;100.00
24666;BME280;29726;53.532;-1.478;2024-01-30T01:11:49;100489.63;;;11.42;100.00
24666;BME280;29726;53.532;-1.478;2024-01-30T01:14:33;100497.06;;;11.45;100.00
24666;BME280;29726;53.532;-1.478;2024-01-30T01:17:17;100497.84;;;11.46;100.00
24666;BME280;29726;53.532;-1.478;2024-01-30T01:20:03;100500.16;;;11.47;100.00
24666;BME280;29726;53.532;-1.478;2024-01-30T01:22:49;100487.13;;;11.44;100.00
24666;BME280;29726;53.532;-1.478;2024-01-30T01:25:32;100486.38;;;11.44;100.00
24666;BME280;29726;53.532;-1.478;2024-01-30T01:28:16;100495.81;;;11.46;100.00
24666;BME280;29726;53.532;-1.478;2024-01-30T01:31:01;100488.69;;;11.45;100.00
24666;BME280;29726;53.532;-1.478;2024-01-30T01:33:49;100483.09;;;11.45;100.00
24666;BME280;29726;53.532;-1.478;2024-01-30T01:36:33;100474.41;;;11.43;100.00
24666;BME280;29726;53.532;-1.478;2024-01-30T01:39:17;100484.63;;;11.46;100.00
24666;BME280;29726;53.532;-1.478;2024-01-30T01:42:02;100479.03;;;11.46;100.00
24666;BME280;29726;53.532;-1.478;2024-01-30T01:44:46;100473.16;;;11.44;100.00
24666;BME280;29726;53.532;-1.478;2024-01-30T01:47:30;100474.41;;;11.43;100.00
24666;BME280;29726;53.532;-1.478;2024-01-30T01:50:16;100478.28;;;11.46;100.00
24666;BME280;29726;53.532;-1.478;2024-01-30T01:53:03;100475.19;;;11.44;100.00
24666;BME280;29726;53.532;-1.478;2024-01-30T01:55:47;100479.03;;;11.46;100.00
24666;BME280;29726;53.532;-1.478;2024-01-30T01:58:32;100478.00;;;11.44;100.00
24666;BME280;29726;53.532;-1.478;2024-01-30T02:01:16;100480.34;;;11.36;100.00
24666;BME280;29726;53.532;-1.478;2024-01-30T02:04:02;100486.38;;;11.44;100.00
24666;BME280;29726;53.532;-1.478;2024-01-30T02:06:46;100484.84;;;11.43;100.00
24666;BME280;29726;53.532;-1.478;2024-01-30T02:09:31;100491.47;;;11.45;100.00
24666;BME280;29726;53.532;-1.478;2024-01-30T02:12:15;100485.00;;;11.39;100.00
24666;BME280;29726;53.532;-1.478;2024-01-30T02:14:59;100485.47;;;11.38;100.00
24666;BME280;29726;53.532;-1.478;2024-01-30T02:17:43;100499.09;;;11.45;100.00
24666;BME280;29726;53.532;-1.478;2024-01-30T02:20:30;100520.38;;;11.42;100.00
24666;BME280;29726;53.532;-1.478;2024-01-30T02:23:19;100546.31;;;11.43;100.00
24666;BME280;29726;53.532;-1.478;2024-01-30T02:26:03;100536.84;;;11.40;100.00
24666;BME280;29726;53.532;-1.478;2024-01-30T02:28:47;100540.88;;;11.39;100.00
24666;BME280;29726;53.532;-1.478;2024-01-30T02:31:31;100541.19;;;11.41;100.00
24666;BME280;29726;53.532;-1.478;2024-01-30T02:34:15;100538.09;;;11.39;100.00
24666;BME280;29726;53.532;-1.478;2024-01-30T02:37:00;100528.16;;;11.38;100.00
24666;BME280;29726;53.532;-1.478;2024-01-30T02:39:43;100536.09;;;11.40;100.00
24666;BME280;29726;53.532;-1.478;2024-01-30T02:42:28;100535.16;;;11.34;100.00
24666;BME280;29726;53.532;-1.478;2024-01-30T02:45:12;100541.84;;;11.36;100.00
24666;BME280;29726;53.532;-1.478;2024-01-30T02:47:56;100552.56;;;11.38;100.00
24666;BME280;29726;53.532;-1.478;2024-01-30T02:50:40;100551.47;;;11.35;100.00
24666;BME280;29726;53.532;-1.478;2024-01-30T02:53:24;100562.66;;;11.35;100.00
24666;BME280;29726;53.532;-1.478;2024-01-30T02:56:08;100550.69;;;11.35;100.00
24666;BME280;29726;53.532;-1.478;2024-01-30T02:58:53;100561.84;;;11.35;100.00
24666;BME280;29726;53.532;-1.478;2024-01-30T03:01:44;100565.59;;;11.32;100.00
24666;BME280;29726;53.532;-1.478;2024-01-30T03:04:28;100552.41;;;11.32;100.00
24666;BME280;29726;53.532;-1.478;2024-01-30T03:07:13;100551.63;;;11.32;100.00
24666;BME280;29726;53.532;-1.478;2024-01-30T03:09:58;100560.31;;;11.34;100.00
24666;BME280;29726;53.532;-1.478;2024-01-30T03:12:42;100565.16;;;11.33;100.00
24666;BME280;29726;53.532;-1.478;2024-01-30T03:15:26;100546.53;;;11.30;100.00
24666;BME280;29726;53.532;-1.478;2024-01-30T03:18:10;100554.13;;;11.30;100.00
24666;BME280;29726;53.532;-1.478;2024-01-30T03:20:54;100552.41;;;11.32;100.00
24666;BME280;29726;53.532;-1.478;2024-01-30T03:23:38;100552.56;;;11.29;100.00
24666;BME280;29726;53.532;-1.478;2024-01-30T03:26:22;100560.19;;;11.28;100.00
24666;BME280;29726;53.532;-1.478;2024-01-30T03:29:06;100563.44;;;11.27;100.00
24666;BME280;29726;53.532;-1.478;2024-01-30T03:31:50;100564.53;;;11.29;100.00
24666;BME280;29726;53.532;-1.478;2024-01-30T03:34:34;100574.16;;;11.28;100.00
24666;BME280;29726;53.532;-1.478;2024-01-30T03:37:18;100574.63;;;11.27;100.00
24666;BME280;29726;53.532;-1.478;2024-01-30T03:40:02;100579.13;;;11.24;100.00
24666;BME280;29726;53.532;-1.478;2024-01-30T03:42:47;100557.75;;;11.12;100.00
24666;BME280;29726;53.532;-1.478;2024-01-30T03:45:31;100576.53;;;11.21;100.00
24666;BME280;29726;53.532;-1.478;2024-01-30T03:48:15;100567.09;;;11.09;100.00
24666;BME280;29726;53.532;-1.478;2024-01-30T03:50:59;100598.38;;;11.22;100.00
24666;BME280;29726;53.532;-1.478;2024-01-30T03:53:43;100587.50;;;11.24;100.00
24666;BME280;29726;53.532;-1.478;2024-01-30T03:56:27;100596.84;;;11.21;100.00
24666;BME280;29726;53.532;-1.478;2024-01-30T03:59:11;100603.50;;;11.24;100.00
24666;BME280;29726;53.532;-1.478;2024-01-30T04:01:55;100606.75;;;11.22;100.00
24666;BME280;29726;53.532;-1.478;2024-01-30T04:04:39;100609.25;;;11.20;100.00
24666;BME280;29726;53.532;-1.478;2024-01-30T04:07:23;100614.38;;;11.22;100.00
24666;BME280;29726;53.532;-1.478;2024-01-30T04:10:08;100621.22;;;11.21;100.00
24666;BME280;29726;53.532;-1.478;2024-01-30T04:12:52;100633.66;;;11.20;100.00
24666;BME280;29726;53.532;-1.478;2024-01-30T04:15:36;100629.31;;;11.19;100.00
24666;BME280;29726;53.532;-1.478;2024-01-30T04:18:20;100631.31;;;11.18;100.00
24666;BME280;29726;53.532;-1.478;2024-01-30T04:21:04;100629.59;;;11.12;100.00
24666;BME280;29726;53.532;-1.478;2024-01-30T04:23:48;100625.91;;;11.15;100.00
24666;BME280;29726;53.532;-1.478;2024-01-30T04:26:33;100646.53;;;11.17;100.00
24666;BME280;29726;53.532;-1.478;2024-01-30T04:29:17;100651.50;;;11.13;100.00
24666;BME280;29726;53.532;-1.478;2024-01-30T04:32:01;100655.38;;;11.16;100.00
24666;BME280;29726;53.532;-1.478;2024-01-30T04:34:45;100656.63;;;11.15;100.00
24666;BME280;29726;53.532;-1.478;2024-01-30T04:37:29;100665.00;;;11.15;100.00
24666;BME280;29726;53.532;-1.478;2024-01-30T04:40:13;100657.41;;;11.06;100.00
24666;BME280;29726;53.532;-1.478;2024-01-30T04:42:57;100658.97;;;11.07;100.00
24666;BME280;29726;53.532;-1.478;2024-01-30T04:45:41;100668.41;;;11.10;100.00
24666;BME280;29726;53.532;-1.478;2024-01-30T04:48:25;100679.88;;;11.12;100.00
24666;BME280;29726;53.532;-1.478;2024-01-30T04:51:09;100680.53;;;11.07;100.00
24666;BME280;29726;53.532;-1.478;2024-01-30T04:53:53;100695.59;;;11.09;100.00
24666;BME280;29726;53.532;-1.478;2024-01-30T04:56:37;100697.59;;;11.09;100.00
24666;BME280;29726;53.532;-1.478;2024-01-30T04:59:23;100695.28;;;11.07;100.00
24666;BME280;29726;53.532;-1.478;2024-01-30T05:02:07;100704.91;;;11.06;100.00
24666;BME280;29726;53.532;-1.478;2024-01-30T05:04:51;100701.81;;;11.04;100.00
24666;BME280;29726;53.532;-1.478;2024-01-30T05:07:35;100702.25;;;11.03;100.00
24666;BME280;29726;53.532;-1.478;2024-01-30T05:10:19;100721.34;;;11.04;100.00
24666;BME280;29726;53.532;-1.478;2024-01-30T05:13:03;100731.75;;;11.04;100.00
24666;BME280;29726;53.532;-1.478;2024-01-30T05:15:47;100744.94;;;11.03;100.00
24666;BME280;29726;53.532;-1.478;2024-01-30T05:18:31;100745.84;;;11.00;100.00
24666;BME280;29726;53.532;-1.478;2024-01-30T05:21:15;100753.00;;;11.01;100.00
24666;BME280;29726;53.532;-1.478;2024-01-30T05:23:59;100757.97;;;10.97;100.00
24666;BME280;29726;53.532;-1.478;2024-01-30T05:26:43;100771.47;;;10.99;100.00
24666;BME280;29726;53.532;-1.478;2024-01-30T05:29:27;100775.50;;;10.98;100.00
24666;BME280;29726;53.532;-1.478;2024-01-30T05:32:10;100793.03;;;10.98;100.00
24666;BME280;29726;53.532;-1.478;2024-01-30T05:34:54;100790.84;;;10.93;100.00
24666;BME280;29726;53.532;-1.478;2024-01-30T05:37:39;100802.81;;;10.94;100.00
24666;BME280;29726;53.532;-1.478;2024-01-30T05:40:23;100810.72;;;10.95;100.00
24666;BME280;29726;53.532;-1.478;2024-01-30T05:43:07;100816.78;;;10.94;100.00
24666;BME280;29726;53.532;-1.478;2024-01-30T05:45:52;100827.47;;;10.95;100.00
24666;BME280;29726;53.532;-1.478;2024-01-30T05:48:36;100829.97;;;10.93;100.00
24666;BME280;29726;53.532;-1.478;2024-01-30T05:51:20;100826.41;;;10.93;100.00
24666;BME280;29726;53.532;-1.478;2024-01-30T05:54:04;100830.88;;;10.90;100.00
24666;BME280;29726;53.532;-1.478;2024-01-30T05:56:48;100829.94;;;10.84;100.00
24666;BME280;29726;53.532;-1.478;2024-01-30T05:59:32;100847.34;;;10.88;100.00
24666;BME280;29726;53.532;-1.478;2024-01-30T06:02:16;100853.84;;;10.85;100.00
24666;BME280;29726;53.532;-1.478;2024-01-30T06:05:00;100860.97;;;10.86;100.00
24666;BME280;29726;53.532;-1.478;2024-01-30T06:07:44;100874.16;;;10.86;100.00
24666;BME280;29726;53.532;-1.478;2024-01-30T06:10:28;100866.69;;;10.83;100.00
24666;BME280;29726;53.532;-1.478;2024-01-30T06:13:12;100874.75;;;10.81;100.00
24666;BME280;29726;53.532;-1.478;2024-01-30T06:15:56;100891.38;;;10.84;100.00
24666;BME280;29726;53.532;-1.478;2024-01-30T06:18:40;100893.88;;;10.82;100.00
24666;BME280;29726;53.532;-1.478;2024-01-30T06:21:24;100901.13;;;10.80;100.00
24666;BME280;29726;53.532;-1.478;2024-01-30T06:24:08;100901.56;;;10.78;100.00
24666;BME280;29726;53.532;-1.478;2024-01-30T06:26:52;100902.50;;;10.75;100.00
24666;BME280;29726;53.532;-1.478;2024-01-30T06:29:36;100916.34;;;10.79;100.00
24666;BME280;29726;53.532;-1.478;2024-01-30T06:32:20;100924.41;;;10.77;100.00
24666;BME280;29726;53.532;-1.478;2024-01-30T06:35:05;100933.22;;;10.75;100.00
24666;BME280;29726;53.532;-1.478;2024-01-30T06:37:49;100930.25;;;10.70;100.00
24666;BME280;29726;53.532;-1.478;2024-01-30T06:40:33;100941.28;;;10.73;100.00
24666;BME280;29726;53.532;-1.478;2024-01-30T06:43:17;100938.66;;;10.70;100.00
24666;BME280;29726;53.532;-1.478;2024-01-30T06:46:01;100950.88;;;10.72;100.00
24666;BME280;29726;53.532;-1.478;2024-01-30T06:48:45;100958.50;;;10.72;100.00
24666;BME280;29726;53.532;-1.478;2024-01-30T06:51:29;100954.28;;;10.67;100.00
24666;BME280;29726;53.532;-1.478;2024-01-30T06:54:13;100959.88;;;10.67;100.00
24666;BME280;29726;53.532;-1.478;2024-01-30T06:56:58;100972.28;;;10.66;100.00
24666;BME280;29726;53.532;-1.478;2024-01-30T06:59:42;100977.41;;;10.68;100.00
24666;BME280;29726;53.532;-1.478;2024-01-30T07:02:28;100974.44;;;10.62;100.00
24666;BME280;29726;53.532;-1.478;2024-01-30T07:05:12;100966.78;;;10.54;100.00
24666;BME280;29726;53.532;-1.478;2024-01-30T07:07:56;100993.19;;;10.62;100.00
24666;BME280;29726;53.532;-1.478;2024-01-30T07:10:40;101008.25;;;10.64;100.00
24666;BME280;29726;53.532;-1.478;2024-01-30T07:13:24;101001.09;;;10.63;100.00
24666;BME280;29726;53.532;-1.478;2024-01-30T07:16:08;101023.88;;;10.62;100.00
24666;BME280;29726;53.532;-1.478;2024-01-30T07:18:52;101021.56;;;10.60;100.00
24666;BME280;29726;53.532;-1.478;2024-01-30T07:21:36;101025.59;;;10.59;100.00
24666;BME280;29726;53.532;-1.478;2024-01-30T07:24:20;101025.59;;;10.59;100.00
24666;BME280;29726;53.532;-1.478;2024-01-30T07:27:04;101028.50;;;10.56;100.00
24666;BME280;29726;53.532;-1.478;2024-01-30T07:29:49;101050.41;;;10.57;100.00
24666;BME280;29726;53.532;-1.478;2024-01-30T07:32:33;101031.34;;;10.43;100.00
24666;BME280;29726;53.532;-1.478;2024-01-30T07:35:17;101055.63;;;10.55;100.00
24666;BME280;29726;53.532;-1.478;2024-01-30T07:38:01;101066.78;;;10.55;100.00
24666;BME280;29726;53.532;-1.478;2024-01-30T07:40:45;101081.97;;;10.54;100.00
24666;BME280;29726;53.532;-1.478;2024-01-30T07:43:29;101081.66;;;10.52;100.00
24666;BME280;29726;53.532;-1.478;2024-01-30T07:46:13;101092.06;;;10.52;100.00
24666;BME280;29726;53.532;-1.478;2024-01-30T07:48:58;101100.44;;;10.52;100.00
24666;BME280;29726;53.532;-1.478;2024-01-30T07:51:42;101093.09;;;10.45;100.00
24666;BME280;29726;53.532;-1.478;2024-01-30T07:54:27;101104.91;;;10.49;100.00
24666;BME280;29726;53.532;-1.478;2024-01-30T07:57:11;101112.19;;;10.47;100.00
24666;BME280;29726;53.532;-1.478;2024-01-30T07:59:55;101118.66;;;10.44;100.00
24666;BME280;29726;53.532;-1.478;2024-01-30T08:02:38;101125.81;;;10.45;100.00
24666;BME280;29726;53.532;-1.478;2024-01-30T08:05:23;101140.09;;;10.47;100.00
24666;BME280;29726;53.532;-1.478;2024-01-30T08:08:07;101126.84;;;10.38;100.00
24666;BME280;29726;53.532;-1.478;2024-01-30T08:10:51;101144.56;;;10.44;100.00
24666;BME280;29726;53.532;-1.478;2024-01-30T08:13:35;101153.38;;;10.43;100.00
24666;BME280;29726;53.532;-1.478;2024-01-30T08:16:19;101162.66;;;10.40;100.00
24666;BME280;29726;53.532;-1.478;2024-01-30T08:19:03;101161.88;;;10.39;100.00
24666;BME280;29726;53.532;-1.478;2024-01-30T08:21:47;101173.81;;;10.40;100.00
24666;BME280;29726;53.532;-1.478;2024-01-30T08:24:31;101167.91;;;10.38;100.00
24666;BME280;29726;53.532;-1.478;2024-01-30T08:27:15;101181.19;;;10.34;100.00
24666;BME280;29726;53.532;-1.478;2024-01-30T08:29:58;101192.69;;;10.36;100.00
24666;BME280;29726;53.532;-1.478;2024-01-30T08:32:42;101199.59;;;10.31;100.00
24666;BME280;29726;53.532;-1.478;2024-01-30T08:35:26;101209.44;;;10.36;100.00
24666;BME280;29726;53.532;-1.478;2024-01-30T08:38:11;101224.63;;;10.35;100.00
24666;BME280;29726;53.532;-1.478;2024-01-30T08:40:56;101232.22;;;10.34;100.00
24666;BME280;29726;53.532;-1.478;2024-01-30T08:43:40;101239.47;;;10.32;100.00
24666;BME280;29726;53.532;-1.478;2024-01-30T08:46:24;101243.16;;;10.29;100.00
24666;BME280;29726;53.532;-1.478;2024-01-30T08:49:08;101253.00;;;10.33;100.00
24666;BME280;29726;53.532;-1.478;2024-01-30T08:51:52;101250.88;;;10.25;100.00
24666;BME280;29726;53.532;-1.478;2024-01-30T08:54:36;101270.59;;;10.30;100.00
24666;BME280;29726;53.532;-1.478;2024-01-30T08:57:20;101265.50;;;10.29;100.00
24666;BME280;29726;53.532;-1.478;2024-01-30T09:00:04;101271.97;;;10.26;100.00
24666;BME280;29726;53.532;-1.478;2024-01-30T09:02:50;101289.81;;;10.28;100.00
24666;BME280;29726;53.532;-1.478;2024-01-30T09:05:34;101298.50;;;10.30;100.00
24666;BME280;29726;53.532;-1.478;2024-01-30T09:08:18;101291.50;;;10.26;100.00
24666;BME280;29726;53.532;-1.478;2024-01-30T09:11:09;101299.06;;;10.25;100.00
24666;BME280;29726;53.532;-1.478;2024-01-30T09:13:53;101307.00;;;10.27;100.00
24666;BME280;29726;53.532;-1.478;2024-01-30T09:16:37;101308.69;;;10.24;100.00
24666;BME280;29726;53.532;-1.478;2024-01-30T09:19:21;101315.47;;;10.23;100.00
24666;BME280;29726;53.532;-1.478;2024-01-30T09:22:05;101331.34;;;10.26;100.00
24666;BME280;29726;53.532;-1.478;2024-01-30T09:24:49;101346.50;;;10.25;100.00
24666;BME280;29726;53.532;-1.478;2024-01-30T09:27:33;101349.63;;;10.27;100.00
24666;BME280;29726;53.532;-1.478;2024-01-30T09:30:17;101352.88;;;10.26;100.00
24666;BME280;29726;53.532;-1.478;2024-01-30T09:33:01;101346.66;;;10.22;100.00
24666;BME280;29726;53.532;-1.478;2024-01-30T09:35:45;101360.94;;;10.24;100.00
24666;BME280;29726;53.532;-1.478;2024-01-30T09:38:29;101364.16;;;10.22;100.00
24666;BME280;29726;53.532;-1.478;2024-01-30T09:41:14;101367.03;;;10.19;100.00
24666;BME280;29726;53.532;-1.478;2024-01-30T09:43:59;101384.34;;;10.26;100.00
24666;BME280;29726;53.532;-1.478;2024-01-30T09:46:46;101396.75;;;10.25;100.00
24666;BME280;29726;53.532;-1.478;2024-01-30T09:49:34;101405.91;;;10.26;100.00
24666;BME280;29726;53.532;-1.478;2024-01-30T09:52:19;101400.88;;;10.21;100.00
24666;BME280;29726;53.532;-1.478;2024-01-30T09:55:04;101404.88;;;10.20;100.00
24666;BME280;29726;53.532;-1.478;2024-01-30T09:57:50;101417.50;;;10.24;100.00
24666;BME280;29726;53.532;-1.478;2024-01-30T10:00:35;101423.09;;;10.24;100.00
24666;BME280;29726;53.532;-1.478;2024-01-30T10:03:19;101437.84;;;10.25;100.00
24666;BME280;29726;53.532;-1.478;2024-01-30T10:06:03;101427.31;;;10.16;100.00
24666;BME280;29726;53.532;-1.478;2024-01-30T10:08:48;101429.66;;;10.18;100.00
24666;BME280;29726;53.532;-1.478;2024-01-30T10:11:31;101444.31;;;10.22;100.00
24666;BME280;29726;53.532;-1.478;2024-01-30T10:14:16;101449.44;;;10.23;100.00
24666;BME280;29726;53.532;-1.478;2024-01-30T10:17:01;101458.13;;;10.25;100.00
24666;BME280;29726;53.532;-1.478;2024-01-30T10:19:45;101463.38;;;10.23;100.00
24666;BME280;29726;53.532;-1.478;2024-01-30T10:22:29;101476.09;;;10.24;100.00
24666;BME280;29726;53.532;-1.478;2024-01-30T10:25:13;101466.16;;;10.23;100.00
24666;BME280;29726;53.532;-1.478;2024-01-30T10:27:58;101480.13;;;10.23;100.00
24666;BME280;29726;53.532;-1.478;2024-01-30T10:30:43;101477.88;;;10.18;100.00
24666;BME280;29726;53.532;-1.478;2024-01-30T10:33:27;101489.28;;;10.24;100.00
24666;BME280;29726;53.532;-1.478;2024-01-30T10:36:14;101483.00;;;10.20;100.00
24666;BME280;29726;53.532;-1.478;2024-01-30T10:39:05;101493.31;;;10.23;100.00
24666;BME280;29726;53.532;-1.478;2024-01-30T10:41:53;101501.75;;;10.19;100.00
24666;BME280;29726;53.532;-1.478;2024-01-30T10:47:36;101523.53;;;10.24;100.00
24666;BME280;29726;53.532;-1.478;2024-01-30T10:50:24;101518.84;;;10.21;100.00
24666;BME280;29726;53.532;-1.478;2024-01-30T10:53:09;101526.00;;;10.22;100.00
24666;BME280;29726;53.532;-1.478;2024-01-30T10:55:55;101533.13;;;10.23;100.00
24666;BME280;29726;53.532;-1.478;2024-01-30T10:58:40;101533.59;;;10.22;100.00
24666;BME280;29726;53.532;-1.478;2024-01-30T11:01:25;101541.16;;;10.21;100.00
24666;BME280;29726;53.532;-1.478;2024-01-30T11:04:11;101549.78;;;10.27;100.00
24666;BME280;29726;53.532;-1.478;2024-01-30T11:06:55;101557.03;;;10.24;100.00
24666;BME280;29726;53.532;-1.478;2024-01-30T11:09:39;101556.16;;;10.27;100.00
24666;BME280;29726;53.532;-1.478;2024-01-30T11:12:27;101581.59;;;10.29;100.00
24666;BME280;29726;53.532;-1.478;2024-01-30T11:15:16;101566.09;;;10.28;100.00
24666;BME280;29726;53.532;-1.478;2024-01-30T11:18:01;101577.59;;;10.30;100.00
24666;BME280;29726;53.532;-1.478;2024-01-30T11:20:46;101575.16;;;10.32;100.00
24666;BME280;29726;53.532;-1.478;2024-01-30T11:23:33;101567.13;;;10.34;100.00
24666;BME280;29726;53.532;-1.478;2024-01-30T11:26:18;101571.50;;;10.35;100.00
24666;BME280;29726;53.532;-1.478;2024-01-30T11:29:07;101549.88;;;10.23;100.00
24666;BME280;29726;53.532;-1.478;2024-01-30T11:31:58;101565.56;;;10.33;100.00
24666;BME280;29726;53.532;-1.478;2024-01-30T11:34:43;101580.63;;;10.36;100.00
24666;BME280;29726;53.532;-1.478;2024-01-30T11:37:28;101586.13;;;10.39;100.00
24666;BME280;29726;53.532;-1.478;2024-01-30T11:40:14;101580.97;;;10.38;100.00
24666;BME280;29726;53.532;-1.478;2024-01-30T11:43:01;101581.31;;;10.40;100.00
24666;BME280;29726;53.532;-1.478;2024-01-30T11:45:45;101593.63;;;10.42;100.00
24666;BME280;29726;53.532;-1.478;2024-01-30T11:48:30;101599.47;;;10.48;100.00
24666;BME280;29726;53.532;-1.478;2024-01-30T11:51:14;101601.03;;;10.49;100.00
24666;BME280;29726;53.532;-1.478;2024-01-30T11:53:58;101601.81;;;10.49;100.00
24666;BME280;29726;53.532;-1.478;2024-01-30T11:56:42;101602.13;;;10.51;100.00
24666;BME280;29726;53.532;-1.478;2024-01-30T11:59:26;101609.28;;;10.52;100.00
24666;BME280;29726;53.532;-1.478;2024-01-30T12:02:15;101613.66;;;10.53;100.00
24666;BME280;29726;53.532;-1.478;2024-01-30T12:05:07;101616.00;;;10.55;100.00
24666;BME280;29726;53.532;-1.478;2024-01-30T12:07:51;101621.94;;;10.57;100.00
24666;BME280;29726;53.532;-1.478;2024-01-30T12:10:35;101625.53;;;10.57;100.00
24666;BME280;29726;53.532;-1.478;2024-01-30T12:13:19;101626.31;;;10.58;100.00
24666;BME280;29726;53.532;-1.478;2024-01-30T12:16:04;101627.09;;;10.58;100.00
24666;BME280;29726;53.532;-1.478;2024-01-30T12:18:48;101634.25;;;10.59;100.00
24666;BME280;29726;53.532;-1.478;2024-01-30T12:21:33;101627.88;;;10.59;100.00
24666;BME280;29726;53.532;-1.478;2024-01-30T12:24:17;101633.03;;;10.60;100.00
24666;BME280;29726;53.532;-1.478;2024-01-30T12:27:01;101641.06;;;10.58;100.00
24666;BME280;29726;53.532;-1.478;2024-01-30T12:29:45;101642.97;;;10.61;100.00
24666;BME280;29726;53.532;-1.478;2024-01-30T12:32:29;101664.84;;;10.63;100.00
24666;BME280;29726;53.532;-1.478;2024-01-30T12:35:15;101668.78;;;10.65;100.00
24666;BME280;29726;53.532;-1.478;2024-01-30T12:38:00;101646.81;;;10.51;100.00
24666;BME280;29726;53.532;-1.478;2024-01-30T12:40:44;101671.13;;;10.67;100.00
24666;BME280;29726;53.532;-1.478;2024-01-30T12:43:29;101664.41;;;10.64;100.00
24666;BME280;29726;53.532;-1.478;2024-01-30T12:46:13;101661.09;;;10.69;100.00
24666;BME280;29726;53.532;-1.478;2024-01-30T12:48:57;101665.78;;;10.72;100.00
24666;BME280;29726;53.532;-1.478;2024-01-30T12:51:41;101667.34;;;10.73;100.00
24666;BME280;29726;53.532;-1.478;2024-01-30T12:54:25;101643.41;;;10.60;100.00
24666;BME280;29726;53.532;-1.478;2024-01-30T12:57:10;101663.34;;;10.74;100.00
24666;BME280;29726;53.532;-1.478;2024-01-30T12:59:54;101660.47;;;10.78;100.00
24666;BME280;29726;53.532;-1.478;2024-01-30T13:02:38;101663.16;;;10.81;100.00
24666;BME280;29726;53.532;-1.478;2024-01-30T13:05:23;101654.31;;;10.83;100.00
24666;BME280;29726;53.532;-1.478;2024-01-30T13:08:08;101652.69;;;10.85;100.00
24666;BME280;29726;53.532;-1.478;2024-01-30T13:10:52;101654.59;;;10.88;100.00
24666;BME280;29726;53.532;-1.478;2024-01-30T13:13:36;101641.84;;;10.87;100.00
24666;BME280;29726;53.532;-1.478;2024-01-30T13:16:20;101641.75;;;10.91;100.00
24666;BME280;29726;53.532;-1.478;2024-01-30T13:19:04;101634.81;;;10.95;100.00
24666;BME280;29726;53.532;-1.478;2024-01-30T13:21:48;101636.50;;;10.93;100.00
24666;BME280;29726;53.532;-1.478;2024-01-30T13:24:32;101634.72;;;10.99;100.00
24666;BME280;29726;53.532;-1.478;2024-01-30T13:27:16;101642.66;;;11.00;100.00
24666;BME280;29726;53.532;-1.478;2024-01-30T13:30:00;101646.91;;;11.05;100.00
24666;BME280;29726;53.532;-1.478;2024-01-30T13:32:44;101644.91;;;11.05;100.00
24666;BME280;29726;53.532;-1.478;2024-01-30T13:35:28;101654.31;;;11.11;100.00
24666;BME280;29726;53.532;-1.478;2024-01-30T13:38:13;101660.69;;;11.12;100.00
24666;BME280;29726;53.532;-1.478;2024-01-30T13:40:57;101671.75;;;11.15;100.00
24666;BME280;29726;53.532;-1.478;2024-01-30T13:43:43;101668.19;;;11.15;100.00
24666;BME280;29726;53.532;-1.478;2024-01-30T13:46:27;101681.63;;;11.20;100.00
24666;BME280;29726;53.532;-1.478;2024-01-30T13:49:11;101694.72;;;11.23;100.00
24666;BME280;29726;53.532;-1.478;2024-01-30T13:51:55;101699.06;;;11.24;100.00
24666;BME280;29726;53.532;-1.478;2024-01-30T13:54:39;101681.97;;;11.22;100.00
24666;BME280;29726;53.532;-1.478;2024-01-30T13:57:23;101702.13;;;11.29;100.00
24666;BME280;29726;53.532;-1.478;2024-01-30T14:00:07;101718.75;;;11.33;100.00